createdAt,value
2017-09-13T00:00:14.697Z,3.30
2017-09-13T00:02:41.281Z,6.67
2017-09-13T00:05:07.857Z,5.30
2017-09-13T00:07:34.446Z,8.03
2017-09-13T00:10:01.016Z,7.43
2017-09-13T00:12:27.595Z,8.60
2017-09-13T00:14:54.188Z,9.93
2017-09-13T00:17:20.762Z,4.60
2017-09-13T00:19:47.329Z,8.20
2017-09-13T00:22:13.914Z,5.97
2017-09-13T00:24:40.490Z,5.23
2017-09-13T00:27:07.109Z,5.27
2017-09-13T00:29:33.712Z,10.50
2017-09-13T00:32:00.290Z,5.50
2017-09-13T00:34:26.886Z,10.30
2017-09-13T00:36:53.466Z,6.07
2017-09-13T00:39:20.042Z,5.70
2017-09-13T00:41:46.622Z,4.37
2017-09-13T00:44:13.225Z,6.70
2017-09-13T00:46:39.794Z,6.17
2017-09-13T00:49:06.364Z,8.73
2017-09-13T00:51:32.985Z,5.50
2017-09-13T00:53:59.562Z,7.33
2017-09-13T00:56:26.128Z,7.97
2017-09-13T00:58:52.804Z,5.27
2017-09-13T01:01:19.389Z,7.57
2017-09-13T02:15:11.793Z,4.37
2017-09-13T02:17:38.387Z,8.63
2017-09-13T02:20:04.996Z,7.97
2017-09-13T02:22:32.022Z,5.77
2017-09-13T02:24:58.612Z,4.67
2017-09-13T02:27:25.245Z,7.10
2017-09-13T02:29:51.829Z,8.40
2017-09-13T02:32:18.401Z,6.60
2017-09-13T02:34:45.024Z,4.17
2017-09-13T02:37:11.594Z,6.63
2017-09-13T02:39:38.225Z,11.63
2017-09-13T02:42:04.810Z,6.23
2017-09-13T02:44:31.385Z,5.70
2017-09-13T02:46:57.978Z,12.10
2017-09-13T02:49:24.553Z,6.53
2017-09-13T02:51:51.141Z,8.10
2017-09-13T02:54:17.723Z,9.50
2017-09-13T02:56:44.341Z,6.67
2017-09-13T02:59:10.937Z,4.10
2017-09-13T03:01:37.518Z,9.73
2017-09-13T03:04:04.109Z,7.03
2017-09-13T03:06:30.673Z,6.33
2017-09-13T03:08:57.604Z,5.27
2017-09-13T03:11:24.172Z,7.57
2017-09-13T03:13:50.753Z,7.40
2017-09-13T03:16:17.349Z,5.57
2017-09-13T03:18:43.928Z,9.60
2017-09-13T03:21:10.515Z,7.40
2017-09-13T03:23:37.090Z,8.17
2017-09-13T03:26:03.666Z,7.40
2017-09-13T03:28:30.246Z,5.77
2017-09-13T03:30:56.934Z,10.00
2017-09-13T03:33:23.509Z,6.33
2017-09-13T03:35:50.101Z,14.63
2017-09-13T03:38:16.682Z,6.83
2017-09-13T03:40:43.269Z,5.40
2017-09-13T03:43:09.849Z,9.83
2017-09-13T03:45:36.437Z,5.60
2017-09-13T03:48:03.021Z,11.13
2017-09-13T03:50:29.594Z,4.17
2017-09-13T03:52:56.201Z,4.10
2017-09-13T03:55:22.783Z,2.60
2017-09-13T03:57:49.357Z,7.83
2017-09-13T04:00:15.937Z,3.10
2017-09-13T04:02:42.522Z,3.47
2017-09-13T04:05:09.144Z,6.50
2017-09-13T04:07:35.721Z,5.13
2017-09-13T04:10:02.308Z,2.83
2017-09-13T04:12:28.881Z,2.80
2017-09-13T04:14:55.517Z,3.43
2017-09-13T04:17:22.110Z,2.90
2017-09-13T04:19:48.696Z,1.57
2017-09-13T04:22:15.268Z,4.70
2017-09-13T04:24:42.002Z,1.53
2017-09-13T04:27:08.573Z,1.33
2017-09-13T04:29:35.166Z,2.30
2017-09-13T04:32:01.745Z,3.00
2017-09-13T04:34:28.325Z,2.60
2017-09-13T04:36:54.916Z,1.63
2017-09-13T04:39:21.485Z,3.23
2017-09-13T04:41:48.072Z,6.30
2017-09-13T04:44:14.637Z,2.57
2017-09-13T04:46:41.572Z,2.03
2017-09-13T04:49:08.172Z,3.07
2017-09-13T04:51:34.745Z,2.57
2017-09-13T04:54:01.326Z,1.20
2017-09-13T04:56:27.892Z,1.40
2017-09-13T04:58:54.557Z,1.47
2017-09-13T05:01:21.114Z,4.20
2017-09-13T05:03:51.198Z,0.80
2017-09-13T05:06:17.977Z,2.60
2017-09-13T05:08:44.877Z,0.90
2017-09-13T05:11:11.469Z,0.80
2017-09-13T05:13:38.045Z,2.30
2017-09-13T05:16:04.631Z,0.80
2017-09-13T05:18:31.202Z,1.73
2017-09-13T05:20:57.791Z,0.80
2017-09-13T05:23:24.357Z,1.33
2017-09-13T05:25:50.954Z,0.70
2017-09-13T05:28:17.537Z,0.70
2017-09-13T05:30:44.119Z,4.00
2017-09-13T05:33:10.699Z,0.80
2017-09-13T05:35:37.297Z,0.70
2017-09-13T05:38:03.882Z,1.60
2017-09-13T05:40:30.458Z,1.27
2017-09-13T05:42:57.038Z,0.90
2017-09-13T05:45:23.610Z,1.87
2017-09-13T05:47:50.199Z,0.83
2017-09-13T05:50:16.777Z,1.43
2017-09-13T05:52:43.440Z,0.60
2017-09-13T05:55:10.021Z,0.57
2017-09-13T05:57:36.597Z,0.87
2017-09-13T06:00:03.570Z,1.90
2017-09-13T06:02:30.148Z,0.60
2017-09-13T06:04:56.727Z,0.60
2017-09-13T06:07:23.393Z,0.57
2017-09-13T06:09:49.986Z,1.47
2017-09-13T06:12:16.566Z,0.60
2017-09-13T06:14:43.269Z,0.60
2017-09-13T06:17:09.829Z,1.10
2017-09-13T06:19:36.405Z,0.50
2017-09-13T06:22:03.191Z,0.63
2017-09-13T06:24:29.822Z,0.50
2017-09-13T06:26:56.402Z,0.60
2017-09-13T06:29:25.197Z,1.53
2017-09-13T06:31:51.781Z,1.20
2017-09-13T06:34:18.356Z,1.73
2017-09-13T06:36:44.992Z,0.60
2017-09-13T06:39:11.553Z,0.50
2017-09-13T06:41:38.135Z,0.77
2017-09-13T06:44:05.014Z,2.17
2017-09-13T06:46:31.661Z,0.60
2017-09-13T06:48:59.130Z,1.70
2017-09-13T06:51:25.764Z,0.60
2017-09-13T06:53:53.022Z,0.60
2017-09-13T06:56:19.653Z,0.87
2017-09-13T06:58:46.230Z,1.10
2017-09-13T07:01:12.804Z,1.97
2017-09-13T07:03:39.389Z,1.17
2017-09-13T07:06:06.093Z,0.90
2017-09-13T07:08:32.670Z,1.20
2017-09-13T07:10:59.321Z,1.13
2017-09-13T07:13:25.914Z,0.73
2017-09-13T07:15:52.521Z,0.63
2017-09-13T07:21:04.224Z,4.93
2017-09-13T07:23:30.813Z,0.87
2017-09-13T07:25:57.409Z,3.00
2017-09-13T07:28:24.022Z,3.83
2017-09-13T07:30:50.585Z,2.00
2017-09-13T07:33:17.161Z,0.60
2017-09-13T07:35:43.741Z,1.70
2017-09-13T07:38:10.334Z,1.57
2017-09-13T07:40:45.078Z,2.70
2017-09-13T07:43:15.048Z,5.63
2017-09-13T07:45:41.629Z,5.23
2017-09-13T07:48:08.210Z,3.87
2017-09-13T07:50:35.041Z,5.67
2017-09-13T07:53:01.685Z,4.80
2017-09-13T07:55:28.367Z,3.27
2017-09-13T07:57:54.966Z,5.50
2017-09-13T08:00:21.561Z,6.77
2017-09-13T08:02:48.145Z,7.63
2017-09-13T08:05:14.725Z,15.63
2017-09-13T08:07:41.873Z,6.20
2017-09-13T08:10:08.437Z,6.37
2017-09-13T08:12:35.013Z,8.17
2017-09-13T08:15:01.672Z,10.10
2017-09-13T08:17:28.249Z,11.10
2017-09-13T08:20:07.621Z,8.70
2017-09-13T08:22:34.201Z,6.67
2017-09-13T08:25:04.005Z,7.70
2017-09-13T08:27:33.629Z,10.57
2017-09-13T08:30:00.610Z,12.70
2017-09-13T08:32:27.315Z,10.90
2017-09-13T08:34:53.895Z,7.50
2017-09-13T08:37:20.466Z,8.40
2017-09-13T08:39:47.049Z,6.40
2017-09-13T08:42:13.713Z,8.23
2017-09-13T08:44:40.292Z,8.57
2017-09-13T08:47:06.866Z,6.20
2017-09-13T08:49:33.461Z,12.20
2017-09-13T08:52:00.042Z,14.00
2017-09-13T08:54:26.792Z,7.80
2017-09-13T08:56:53.370Z,6.23
2017-09-13T08:59:20.281Z,9.40
2017-09-13T09:01:46.981Z,7.27
2017-09-13T09:04:13.557Z,9.73
2017-09-13T09:06:40.145Z,8.33
2017-09-13T09:09:06.729Z,9.67
2017-09-13T09:11:33.314Z,10.43
2017-09-13T09:13:59.887Z,11.07
2017-09-13T09:16:26.716Z,14.77
2017-09-13T09:18:53.281Z,11.33
2017-09-13T09:21:19.873Z,11.77
2017-09-13T09:23:46.481Z,10.77
2017-09-13T09:26:13.070Z,9.00
2017-09-13T09:28:39.650Z,8.20
2017-09-13T09:31:06.217Z,6.77
2017-09-13T09:33:32.833Z,5.50
2017-09-13T09:35:59.414Z,7.60
2017-09-13T09:38:26.018Z,4.60
2017-09-13T09:40:52.581Z,9.80
2017-09-13T09:43:19.160Z,7.13
2017-09-13T09:45:45.740Z,6.57
2017-09-13T09:48:12.308Z,9.03
2017-09-13T09:50:39.510Z,15.33
2017-09-13T09:53:06.099Z,11.40
2017-09-13T09:55:32.685Z,6.47
2017-09-13T09:57:59.261Z,10.13
2017-09-13T10:00:25.860Z,5.87
2017-09-13T10:02:52.428Z,6.43
2017-09-13T10:05:19.005Z,5.87
2017-09-13T10:07:45.596Z,5.20
2017-09-13T10:10:12.157Z,3.13
2017-09-13T10:12:38.898Z,6.63
2017-09-13T10:15:05.465Z,5.73
2017-09-13T10:17:32.032Z,7.37
2017-09-13T10:19:58.618Z,2.23
2017-09-13T10:22:25.195Z,2.43
2017-09-13T10:24:51.881Z,1.87
2017-09-13T10:27:18.457Z,5.90
2017-09-13T10:29:45.029Z,2.13
2017-09-13T10:32:11.613Z,3.00
2017-09-13T10:34:38.193Z,1.30
2017-09-13T10:37:04.775Z,2.43
2017-09-13T10:39:31.344Z,3.07
2017-09-13T10:41:57.932Z,4.33
2017-09-13T10:44:24.499Z,5.17
2017-09-13T10:46:51.462Z,3.50
2017-09-13T10:49:18.029Z,6.70
2017-09-13T10:51:44.619Z,3.37
2017-09-13T10:54:11.188Z,5.63
2017-09-13T10:56:37.772Z,5.30
2017-09-13T10:59:04.358Z,4.63
2017-09-13T11:01:30.937Z,1.60
2017-09-13T11:03:57.517Z,7.00
2017-09-13T11:06:24.138Z,2.20
2017-09-13T11:08:50.717Z,3.10
2017-09-13T11:11:17.296Z,2.50
2017-09-13T11:13:43.866Z,7.27
2017-09-13T11:16:10.469Z,4.90
2017-09-13T11:18:37.040Z,2.60
2017-09-13T11:21:03.624Z,3.43
2017-09-13T11:23:30.193Z,3.00
2017-09-13T11:25:56.782Z,2.70
2017-09-13T11:28:23.365Z,3.23
2017-09-13T11:30:49.939Z,3.10
2017-09-13T11:33:16.673Z,1.60
2017-09-13T11:35:43.254Z,2.60
2017-09-13T11:38:09.835Z,1.80
2017-09-13T11:40:36.409Z,2.50
2017-09-13T11:43:02.985Z,3.03
2017-09-13T11:45:29.571Z,2.30
2017-09-13T11:47:56.333Z,2.40
2017-09-13T11:50:22.897Z,5.73
2017-09-13T11:52:49.488Z,2.77
2017-09-13T11:55:16.082Z,4.33
2017-09-13T11:57:42.673Z,3.37
2017-09-13T12:00:09.257Z,3.83
2017-09-13T12:02:35.828Z,7.33
2017-09-13T12:05:02.593Z,2.60
2017-09-13T12:07:29.187Z,3.87
2017-09-13T12:09:55.768Z,8.73
2017-09-13T12:12:22.985Z,3.90
2017-09-13T12:14:49.561Z,5.07
2017-09-13T12:17:17.151Z,2.93
2017-09-13T12:19:44.881Z,5.87
2017-09-13T12:22:11.481Z,5.43
2017-09-13T12:24:38.050Z,2.40
2017-09-13T12:27:04.693Z,3.90
2017-09-13T12:29:31.266Z,4.63
2017-09-13T12:31:57.901Z,4.57
2017-09-13T12:34:24.553Z,7.00
2017-09-13T12:36:51.105Z,6.00
2017-09-13T12:39:17.692Z,3.47
2017-09-13T12:41:44.266Z,4.90
2017-09-13T12:44:10.863Z,2.30
2017-09-13T12:46:37.459Z,3.63
2017-09-13T12:49:04.398Z,3.13
2017-09-13T12:51:30.974Z,2.03
2017-09-13T12:53:57.557Z,2.20
2017-09-13T12:56:33.791Z,2.83
2017-09-13T12:59:00.361Z,1.17
2017-09-13T13:01:26.983Z,1.23
2017-09-13T13:03:53.540Z,2.33
2017-09-13T13:06:20.113Z,2.60
2017-09-13T13:08:46.686Z,1.47
2017-09-13T13:11:16.285Z,2.70
2017-09-13T13:13:42.898Z,1.80
2017-09-13T13:16:09.493Z,1.30
2017-09-13T13:18:36.073Z,3.13
2017-09-13T13:21:02.657Z,1.17
2017-09-13T13:23:29.242Z,0.90
2017-09-13T13:25:55.838Z,3.80
2017-09-13T13:28:22.407Z,1.30
2017-09-13T13:30:48.978Z,1.90
2017-09-13T13:33:15.561Z,10.20
2017-09-13T13:35:42.150Z,3.67
2017-09-13T13:38:08.797Z,6.53
2017-09-13T13:40:35.385Z,5.97
2017-09-13T13:43:01.966Z,2.70
2017-09-13T13:45:28.579Z,8.60
2017-09-13T13:47:55.157Z,7.90
2017-09-13T13:50:21.753Z,2.00
2017-09-13T13:52:48.333Z,2.63
2017-09-13T13:55:15.501Z,6.37
2017-09-13T13:57:42.081Z,8.43
2017-09-13T14:00:08.650Z,9.23
2017-09-13T14:02:35.229Z,9.33
2017-09-13T14:05:01.811Z,7.30
2017-09-13T14:07:28.397Z,12.67
2017-09-13T14:09:54.983Z,10.60
2017-09-13T14:12:21.580Z,12.37
2017-09-13T14:14:48.165Z,13.40
2017-09-13T14:17:14.762Z,9.93
2017-09-13T14:19:41.346Z,11.80
2017-09-13T14:22:07.920Z,19.60
2017-09-13T14:24:34.505Z,17.90
2017-09-13T14:27:01.187Z,13.33
2017-09-13T14:29:27.770Z,17.37
2017-09-13T14:31:54.350Z,10.90
2017-09-13T14:34:20.933Z,13.27
2017-09-13T14:36:47.514Z,14.00
2017-09-13T14:39:14.097Z,13.47
2017-09-13T14:41:40.687Z,11.70
2017-09-13T14:44:11.085Z,17.60
2017-09-13T14:46:37.976Z,16.03
2017-09-13T14:49:04.637Z,8.27
2017-09-13T14:51:31.209Z,8.47
2017-09-13T14:53:57.810Z,7.83
2017-09-13T14:56:24.441Z,3.30
2017-09-13T14:58:51.048Z,3.90
2017-09-13T15:01:17.630Z,4.60
2017-09-13T15:03:44.297Z,3.40
2017-09-13T15:06:14.676Z,4.70
2017-09-13T15:08:41.253Z,3.70
2017-09-13T15:11:07.834Z,12.57
2017-09-13T15:13:34.418Z,9.67
2017-09-13T15:16:01.057Z,7.57
2017-09-13T15:18:27.853Z,9.60
2017-09-13T15:20:54.454Z,13.53
2017-09-13T15:23:21.062Z,9.50
2017-09-13T15:25:47.646Z,7.47
2017-09-13T15:28:14.302Z,6.83
2017-09-13T15:30:40.889Z,16.40
2017-09-13T15:33:07.553Z,5.10
2017-09-13T15:35:34.245Z,3.70
2017-09-13T15:38:00.827Z,10.63
2017-09-13T15:40:27.407Z,7.93
2017-09-13T15:42:53.978Z,5.73
2017-09-13T15:45:20.561Z,6.77
2017-09-13T15:47:47.152Z,7.77
2017-09-13T15:50:13.738Z,4.60
2017-09-13T15:52:40.344Z,6.87
2017-09-13T15:55:06.913Z,7.80
2017-09-13T15:57:34.533Z,4.53
2017-09-13T16:00:11.392Z,4.67
2017-09-13T16:02:39.056Z,8.67
2017-09-13T16:05:11.911Z,7.30
2017-09-13T16:07:38.488Z,5.13
2017-09-13T16:10:05.073Z,6.10
2017-09-13T16:12:31.650Z,4.00
2017-09-13T16:14:58.242Z,8.60
2017-09-13T16:17:24.828Z,9.00
2017-09-13T16:19:51.404Z,10.37
2017-09-13T16:22:17.974Z,5.77
2017-09-13T16:24:44.603Z,8.47
2017-09-13T16:27:11.181Z,8.03
2017-09-13T16:29:37.795Z,10.83
2017-09-13T16:32:04.374Z,8.90
2017-09-13T16:34:41.685Z,9.07
2017-09-13T16:37:08.270Z,19.40
2017-09-13T16:39:40.747Z,12.30
2017-09-13T16:42:07.325Z,14.03
2017-09-13T16:44:33.908Z,15.00
2017-09-13T16:47:00.485Z,11.27
2017-09-13T16:49:27.069Z,16.67
2017-09-13T16:51:53.672Z,11.80
2017-09-13T16:54:20.237Z,13.23
2017-09-13T16:56:46.982Z,10.13
2017-09-13T16:59:13.570Z,13.80
2017-09-13T17:01:40.136Z,8.70
2017-09-13T17:04:06.843Z,10.40
2017-09-13T17:06:33.425Z,13.20
2017-09-13T17:09:00.014Z,13.93
2017-09-13T17:11:26.596Z,11.13
2017-09-13T17:13:53.177Z,20.30
2017-09-13T17:16:19.925Z,16.10
2017-09-13T17:18:46.659Z,17.27
2017-09-13T17:21:13.241Z,16.63
2017-09-13T17:23:39.825Z,15.00
2017-09-13T17:26:06.413Z,11.73
2017-09-13T17:28:33.217Z,13.73
2017-09-13T17:30:59.797Z,14.80
2017-09-13T17:33:26.427Z,16.20
2017-09-13T17:35:53.190Z,23.37
2017-09-13T17:38:19.761Z,26.67
2017-09-13T17:40:46.337Z,19.57
2017-09-13T17:43:13.056Z,15.27
2017-09-13T17:45:39.671Z,13.80
2017-09-13T17:48:06.277Z,14.07
2017-09-13T17:50:32.930Z,17.27
2017-09-13T17:52:59.564Z,15.27
2017-09-13T17:55:26.160Z,11.40
2017-09-13T17:57:52.742Z,8.80
2017-09-13T18:00:19.325Z,15.17
2017-09-13T18:02:45.909Z,15.50
2017-09-13T18:05:12.518Z,14.43
2017-09-13T18:07:39.081Z,19.90
2017-09-13T18:10:05.661Z,13.30
2017-09-13T18:12:32.237Z,16.77
2017-09-13T18:14:59.132Z,16.13
2017-09-13T18:17:25.722Z,13.10
2017-09-13T18:19:52.309Z,21.90
2017-09-13T18:22:18.889Z,14.27
2017-09-13T18:24:45.471Z,19.07
2017-09-13T18:27:12.071Z,14.33
2017-09-13T18:29:38.649Z,14.67
2017-09-13T18:32:05.233Z,12.33
2017-09-13T18:34:31.821Z,14.53
2017-09-13T18:36:58.405Z,14.87
2017-09-13T18:39:24.985Z,17.20
2017-09-13T18:41:51.566Z,18.67
2017-09-13T18:44:18.154Z,17.20
2017-09-13T18:46:44.741Z,19.00
2017-09-13T18:49:11.854Z,14.03
2017-09-13T18:51:38.436Z,21.83
2017-09-13T18:54:05.022Z,20.60
2017-09-13T18:56:31.606Z,13.67
2017-09-13T18:58:58.983Z,16.97
2017-09-13T19:01:25.596Z,13.30
2017-09-13T19:03:53.157Z,25.43
2017-09-13T19:06:19.737Z,22.30
2017-09-13T19:08:46.345Z,14.77
2017-09-13T19:11:14.992Z,19.40
2017-09-13T19:13:42.346Z,21.97
2017-09-13T19:16:10.429Z,24.33
2017-09-13T19:18:37.894Z,25.03
2017-09-13T19:21:04.487Z,24.53
2017-09-13T19:23:31.083Z,19.33
2017-09-13T19:25:57.685Z,17.33
2017-09-13T19:28:24.272Z,15.13
2017-09-13T19:30:51.485Z,16.03
2017-09-13T19:33:18.222Z,21.47
2017-09-13T19:35:44.800Z,21.00
2017-09-13T19:38:11.384Z,15.93
2017-09-13T19:40:37.970Z,17.90
2017-09-13T19:43:04.545Z,21.47
2017-09-13T19:45:31.147Z,15.80
2017-09-13T19:47:57.742Z,14.80
2017-09-13T19:50:24.326Z,15.83
2017-09-13T19:52:50.901Z,13.07
2017-09-13T19:55:17.601Z,14.90
2017-09-13T19:57:44.174Z,17.30
2017-09-13T20:00:10.753Z,17.53
2017-09-13T20:02:37.346Z,23.60
2017-09-13T20:05:03.953Z,23.10
2017-09-13T20:07:30.536Z,13.63
2017-09-13T20:09:57.115Z,19.43
2017-09-13T20:12:23.697Z,15.57
2017-09-13T20:14:50.284Z,10.83
2017-09-13T20:17:16.893Z,19.00
2017-09-13T20:19:43.481Z,12.30
2017-09-13T20:22:10.101Z,13.43
2017-09-13T20:24:36.682Z,15.37
2017-09-13T20:27:03.261Z,19.20
2017-09-13T20:29:29.849Z,18.70
2017-09-13T20:31:56.439Z,18.70
2017-09-13T20:34:23.016Z,20.10
2017-09-13T20:36:49.598Z,17.30
2017-09-13T20:39:16.189Z,17.83
2017-09-13T20:41:43.718Z,13.07
2017-09-13T20:44:10.468Z,14.20
2017-09-13T20:46:37.045Z,19.73
2017-09-13T20:49:03.625Z,16.63
2017-09-13T20:51:30.386Z,13.20
2017-09-13T20:53:56.964Z,16.23
2017-09-13T20:56:23.579Z,16.10
2017-09-13T20:58:50.161Z,16.53
2017-09-13T21:01:16.786Z,12.77
2017-09-13T21:03:43.412Z,16.23
2017-09-13T21:06:09.985Z,14.70
2017-09-13T21:08:36.569Z,15.67
2017-09-13T21:11:03.160Z,15.77
2017-09-13T21:13:29.897Z,23.83
2017-09-13T21:15:56.477Z,13.40
2017-09-13T21:18:23.074Z,10.27
2017-09-13T21:20:49.705Z,13.43
2017-09-13T21:23:16.278Z,11.80
2017-09-13T21:25:42.852Z,12.27
2017-09-13T21:28:09.436Z,13.23
2017-09-13T21:30:36.042Z,7.90
2017-09-13T21:33:02.617Z,10.17
2017-09-13T21:35:29.302Z,9.00
2017-09-13T21:37:55.881Z,11.83
2017-09-13T21:40:22.458Z,8.23
2017-09-13T21:42:49.052Z,8.27
2017-09-13T21:45:15.640Z,8.30
2017-09-13T21:47:42.208Z,6.63
2017-09-13T21:50:08.795Z,6.40
2017-09-13T21:52:35.364Z,6.10
2017-09-13T21:55:01.947Z,8.57
2017-09-13T21:57:28.681Z,5.40
2017-09-13T21:59:55.264Z,8.10
2017-09-13T22:02:21.833Z,9.00
2017-09-13T22:04:48.425Z,6.67
2017-09-13T22:07:15.006Z,10.63
2017-09-13T22:09:41.588Z,5.30
2017-09-13T22:12:10.925Z,6.70
2017-09-13T22:14:37.520Z,6.60
2017-09-13T22:17:04.921Z,4.53
2017-09-13T22:19:31.518Z,5.60
2017-09-13T22:21:58.173Z,6.20
2017-09-13T22:24:24.745Z,4.23
2017-09-13T22:26:51.324Z,4.37
2017-09-13T22:29:17.897Z,5.40
2017-09-13T22:31:44.589Z,3.90
2017-09-13T22:34:11.165Z,6.33
2017-09-13T22:36:37.741Z,5.47
2017-09-13T22:39:04.353Z,5.10
2017-09-13T22:41:30.921Z,4.60
2017-09-13T22:43:57.589Z,4.60
2017-09-13T22:46:24.191Z,5.37
2017-09-13T22:48:50.839Z,4.43
2017-09-13T22:51:17.426Z,5.67
2017-09-13T22:53:44.147Z,4.17
2017-09-13T22:56:10.737Z,5.10
2017-09-13T22:58:37.310Z,4.97
2017-09-13T23:01:03.883Z,2.77
2017-09-13T23:03:30.461Z,5.73
2017-09-13T23:05:57.042Z,4.77
2017-09-13T23:08:23.622Z,4.17
2017-09-13T23:10:50.200Z,4.93
2017-09-13T23:13:26.504Z,4.00
2017-09-13T23:15:53.241Z,3.23
2017-09-13T23:18:19.823Z,2.53
2017-09-13T23:20:46.400Z,6.63
2017-09-13T23:23:12.980Z,4.77
2017-09-13T23:25:39.572Z,7.07
2017-09-13T23:28:06.137Z,3.03
2017-09-13T23:30:32.722Z,6.50
2017-09-13T23:32:59.305Z,8.23
2017-09-13T23:35:25.878Z,7.50
2017-09-13T23:37:52.488Z,3.70
2017-09-13T23:40:19.065Z,4.53
2017-09-13T23:42:45.664Z,6.97
2017-09-13T23:45:12.252Z,7.23
2017-09-13T23:47:38.829Z,3.40
2017-09-13T23:50:05.413Z,5.60
2017-09-13T23:52:31.990Z,5.70
2017-09-13T23:54:58.577Z,4.53
2017-09-13T23:57:25.157Z,4.87
2017-09-13T23:59:51.762Z,4.40
